Time;durP1;ratioP1;P1;durP2;ratioP2;P2;SDS_P1;SDS_P2;PMS_P1;PMS_P2;Temp;Humidity;BMP_temperature;BMP_pressure;BME280_temperature;BME280_humidity;BME280_pressure;Samples;Min_cycle;Max_cycle;Signal;HPM_P1;HPM_P2
2021/01/05 00:02:17;;;;;;;89.72;27.50;;;0.70;96.90;;;;;;5012813;28;20037;-79
2021/01/05 00:04:45;;;;;;;76.50;25.83;;;0.70;96.90;;;;;;4995335;28;20030;-80
2021/01/05 00:07:11;;;;;;;104.05;27.95;;;0.70;96.90;;;;;;5012565;28;20022;-78
2021/01/05 00:09:37;;;;;;;92.88;28.88;;;0.70;97.00;;;;;;4995355;28;20107;-79
2021/01/05 00:12:15;;;;;;;70.78;20.33;;;0.70;97.00;;;;;;5014428;28;20026;-78
2021/01/05 00:14:42;;;;;;;77.10;23.92;;;0.70;97.10;;;;;;5015883;28;20104;-79
2021/01/05 00:17:08;;;;;;;105.15;29.50;;;0.80;97.10;;;;;;5016407;28;20026;-78
2021/01/05 00:19:34;;;;;;;91.22;27.00;;;0.70;96.90;;;;;;4998844;28;20030;-78
2021/01/05 00:22:00;;;;;;;90.45;27.27;;;0.70;97.10;;;;;;5016033;28;20026;-77
2021/01/05 00:24:26;;;;;;;86.55;28.65;;;0.70;97.00;;;;;;4998537;28;20383;-77
2021/01/05 00:26:51;;;;;;;75.20;23.38;;;0.70;96.90;;;;;;5015662;28;20069;-79
2021/01/05 00:29:18;;;;;;;53.30;14.95;;;0.70;96.80;;;;;;5015690;28;20500;-80
2021/01/05 00:31:43;;;;;;;108.60;31.00;;;0.70;96.90;;;;;;5015360;28;20021;-78
2021/01/05 00:34:09;;;;;;;93.80;26.02;;;0.70;97.00;;;;;;5015599;28;20092;-78
2021/01/05 00:36:36;;;;;;;100.38;28.05;;;0.70;97.10;;;;;;5015572;28;20025;-78
2021/01/05 00:39:05;;;;;;;86.50;29.23;;;0.70;97.10;;;;;;5015370;28;20030;-78
2021/01/05 00:41:32;;;;;;;84.95;27.65;;;0.70;97.20;;;;;;5015863;28;20052;-78
2021/01/05 00:43:57;;;;;;;87.50;25.83;;;0.70;97.30;;;;;;4998244;28;20393;-78
2021/01/05 00:46:23;;;;;;;107.40;29.83;;;0.80;97.20;;;;;;4997806;28;20057;-79
2021/01/05 00:48:49;;;;;;;97.22;25.90;;;0.80;97.10;;;;;;5015398;28;20030;-78
2021/01/05 00:51:15;;;;;;;107.13;29.80;;;0.70;97.20;;;;;;5015361;28;20498;-78
2021/01/05 00:53:41;;;;;;;78.75;22.20;;;0.70;97.00;;;;;;5015984;28;20021;-79
2021/01/05 00:56:08;;;;;;;82.70;25.80;;;0.70;97.00;;;;;;5015990;28;20026;-78
2021/01/05 00:58:34;;;;;;;93.05;26.67;;;0.70;97.20;;;;;;5015966;28;20026;-78
2021/01/05 01:01:00;;;;;;;92.80;28.02;;;0.80;97.50;;;;;;4998539;28;20033;-78
2021/01/05 01:03:26;;;;;;;97.38;28.35;;;0.80;97.50;;;;;;5015654;28;20014;-77
2021/01/05 01:05:52;;;;;;;113.53;30.88;;;0.80;97.20;;;;;;4998057;28;20022;-77
2021/01/05 01:08:19;;;;;;;106.93;30.42;;;0.80;97.30;;;;;;4997904;28;20138;-79
2021/01/05 01:10:46;;;;;;;93.15;28.35;;;0.80;97.20;;;;;;5016028;28;20022;-78
2021/01/05 01:13:13;;;;;;;112.38;32.13;;;0.80;97.30;;;;;;5015416;28;20073;-78
2021/01/05 01:15:39;;;;;;;118.63;30.33;;;0.90;97.40;;;;;;5015789;28;20046;-76
2021/01/05 01:18:05;;;;;;;111.85;30.17;;;0.90;97.40;;;;;;5016428;28;20172;-76
2021/01/05 01:20:33;;;;;;;99.40;28.83;;;0.90;97.40;;;;;;4997068;28;20057;-76
2021/01/05 01:22:59;;;;;;;81.53;28.60;;;0.90;97.30;;;;;;5017130;28;20034;-78
2021/01/05 01:25:25;;;;;;;82.97;25.85;;;0.90;97.40;;;;;;5000085;28;20792;-76
2021/01/05 01:27:51;;;;;;;110.13;32.85;;;0.90;97.40;;;;;;5015287;28;20033;-77
2021/01/05 01:30:19;;;;;;;76.28;26.77;;;1.00;97.50;;;;;;5014302;28;20033;-77
2021/01/05 01:32:44;;;;;;;75.95;24.88;;;1.00;97.40;;;;;;5014869;28;20037;-79
2021/01/05 01:35:11;;;;;;;69.20;25.58;;;1.00;97.50;;;;;;5013776;28;20033;-79
2021/01/05 01:37:37;;;;;;;60.72;22.25;;;1.10;97.50;;;;;;4998394;28;20114;-78
2021/01/05 01:40:05;;;;;;;65.07;22.90;;;1.00;97.40;;;;;;4997830;28;20543;-78
2021/01/05 01:42:31;;;;;;;69.63;24.02;;;1.00;97.30;;;;;;4998008;28;20025;-78
2021/01/05 01:44:57;;;;;;;63.50;23.48;;;1.00;97.30;;;;;;5016125;28;20124;-78
2021/01/05 01:47:26;;;;;;;69.15;25.33;;;1.10;97.40;;;;;;5015155;28;20069;-78
2021/01/05 01:49:57;;;;;;;72.15;26.63;;;1.10;97.40;;;;;;4997729;28;20030;-79
2021/01/05 01:52:45;;;;;;;65.93;26.98;;;1.10;97.50;;;;;;5015347;28;20430;-79
2021/01/05 01:55:36;;;;;;;67.40;25.25;;;1.10;97.60;;;;;;5015602;28;20049;-79
2021/01/05 01:58:24;;;;;;;66.15;24.75;;;1.10;97.50;;;;;;4997384;28;20022;-78
2021/01/05 02:01:07;;;;;;;65.10;24.73;;;1.10;97.50;;;;;;5015387;28;20026;-78
2021/01/05 02:03:42;;;;;;;64.18;24.00;;;1.10;97.40;;;;;;5015194;28;20053;-78
2021/01/05 02:06:46;;;;;;;49.72;20.63;;;1.10;97.30;;;;;;5014796;28;20036;-78
2021/01/05 02:09:33;;;;;;;50.08;19.75;;;1.10;97.30;;;;;;4965060;28;20040;-79
2021/01/05 02:12:17;;;;;;;52.85;22.08;;;1.00;97.20;;;;;;5013926;28;20570;-78
2021/01/05 02:14:59;;;;;;;54.75;22.15;;;1.00;97.20;;;;;;5014009;28;20026;-79
2021/01/05 02:17:43;;;;;;;48.50;20.73;;;1.00;97.30;;;;;;5013825;28;20078;-78
2021/01/05 02:20:27;;;;;;;49.70;21.52;;;1.00;97.40;;;;;;5013983;28;20040;-79
2021/01/05 02:23:11;;;;;;;47.78;21.17;;;1.00;97.60;;;;;;5013776;28;20053;-79
2021/01/05 02:25:57;;;;;;;53.13;22.02;;;1.10;97.80;;;;;;4996231;28;20705;-78
2021/01/05 02:28:47;;;;;;;61.75;23.50;;;1.10;97.70;;;;;;5013728;28;20084;-78
2021/01/05 02:31:40;;;;;;;56.47;23.27;;;1.10;97.60;;;;;;5014055;28;20026;-78
2021/01/05 02:34:30;;;;;;;59.75;23.75;;;1.10;97.70;;;;;;5013053;28;20034;-79
2021/01/05 02:37:13;;;;;;;61.22;23.58;;;1.10;97.80;;;;;;5005166;28;20060;-78
2021/01/05 02:39:54;;;;;;;58.35;23.65;;;1.20;97.70;;;;;;4995580;28;20030;-78
2021/01/05 02:42:47;;;;;;;56.00;23.52;;;1.20;97.50;;;;;;5013137;28;20053;-78
2021/01/05 02:45:26;;;;;;;61.85;24.05;;;1.10;97.50;;;;;;5013521;28;20033;-78
2021/01/05 02:48:10;;;;;;;56.42;23.10;;;1.10;97.60;;;;;;4995693;28;20026;-78
2021/01/05 02:51:10;;;;;;;59.40;24.70;;;1.10;97.50;;;;;;5012987;28;20033;-78
2021/01/05 02:53:48;;;;;;;53.30;22.75;;;1.10;97.40;;;;;;5012660;28;20108;-78
2021/01/05 02:56:32;;;;;;;53.40;22.15;;;1.10;97.30;;;;;;5012696;28;20595;-79
2021/01/05 02:59:23;;;;;;;47.95;20.25;;;1.10;97.20;;;;;;4995086;28;20037;-78
2021/01/05 03:02:26;;;;;;;46.50;21.45;;;1.00;97.20;;;;;;5012872;28;20032;-78
2021/01/05 03:04:51;;;;;;;46.80;20.38;;;1.00;97.30;;;;;;5012835;28;20109;-78
2021/01/05 03:07:20;;;;;;;52.75;23.95;;;1.10;97.50;;;;;;4995150;28;20117;-77
2021/01/05 03:10:11;;;;;;;51.60;23.98;;;1.10;97.60;;;;;;5012942;28;20022;-77
2021/01/05 03:13:24;;;;;;;53.42;24.38;;;1.10;97.60;;;;;;5012793;28;20096;-78
2021/01/05 03:16:02;;;;;;;36.95;17.17;;;1.10;97.60;;;;;;5007744;28;20069;-77
2021/01/05 03:18:35;;;;;;;47.97;21.17;;;1.10;97.60;;;;;;5012783;28;20026;-78
2021/01/05 03:21:13;;;;;;;56.08;24.83;;;1.10;97.50;;;;;;5012433;28;20033;-78
2021/01/05 03:23:39;;;;;;;52.05;23.95;;;1.10;97.60;;;;;;5012977;28;20495;-78
2021/01/05 03:26:08;;;;;;;66.75;27.02;;;1.10;97.70;;;;;;4995262;28;20054;-77
2021/01/05 03:28:36;;;;;;;59.83;25.67;;;1.10;97.60;;;;;;4995247;28;20101;-78
2021/01/05 03:31:14;;;;;;;61.75;25.38;;;1.10;97.70;;;;;;5012108;28;20308;-78
2021/01/05 03:33:40;;;;;;;44.03;20.33;;;1.10;97.70;;;;;;5012460;28;20030;-77
2021/01/05 03:36:06;;;;;;;58.30;25.40;;;1.10;97.40;;;;;;4994914;28;20022;-77
2021/01/05 03:38:32;;;;;;;60.22;23.58;;;1.10;97.30;;;;;;5012813;28;20026;-77
2021/01/05 03:40:58;;;;;;;58.90;24.00;;;1.10;97.40;;;;;;5012791;28;20033;-77
2021/01/05 03:43:23;;;;;;;59.63;24.40;;;1.00;97.40;;;;;;5012841;28;20026;-77
2021/01/05 03:45:49;;;;;;;66.95;28.10;;;1.00;97.50;;;;;;4997012;28;20029;-78
2021/01/05 03:48:15;;;;;;;55.72;24.70;;;1.00;97.60;;;;;;5016933;28;20468;-78
2021/01/05 03:50:40;;;;;;;58.75;22.90;;;1.00;97.90;;;;;;4999313;28;20112;-78
2021/01/05 03:53:06;;;;;;;44.65;21.30;;;1.10;97.60;;;;;;5016996;28;20030;-77
2021/01/05 03:55:32;;;;;;;47.20;22.42;;;1.00;97.60;;;;;;4999592;28;20033;-77
2021/01/05 03:57:58;;;;;;;49.63;22.83;;;1.00;97.50;;;;;;5016851;28;20083;-77
2021/01/05 04:00:26;;;;;;;44.50;17.38;;;1.00;97.60;;;;;;5016735;28;20026;-78
2021/01/05 04:02:57;;;;;;;36.05;17.77;;;1.00;97.70;;;;;;5016789;28;20026;-78
2021/01/05 04:05:25;;;;;;;38.90;17.67;;;1.00;97.70;;;;;;5016418;28;20026;-78
2021/01/05 04:07:51;;;;;;;47.15;20.45;;;1.00;97.70;;;;;;4998568;28;20068;-77
2021/01/05 04:10:18;;;;;;;46.92;20.92;;;1.10;97.70;;;;;;5016349;28;20101;-78
2021/01/05 04:12:44;;;;;;;52.70;21.85;;;1.00;97.80;;;;;;5016164;28;20049;-77
2021/01/05 04:15:16;;;;;;;55.78;22.15;;;1.10;97.70;;;;;;4998560;28;20022;-77
2021/01/05 04:17:42;;;;;;;59.78;24.88;;;1.10;97.80;;;;;;4998395;28;20037;-77
2021/01/05 04:20:08;;;;;;;78.72;33.47;;;1.10;97.80;;;;;;5016052;28;20109;-77
2021/01/05 04:22:34;;;;;;;110.78;38.40;;;1.10;97.80;;;;;;5016047;28;20034;-77
2021/01/05 04:25:00;;;;;;;114.53;38.85;;;1.10;97.70;;;;;;5016454;28;20034;-78
2021/01/05 04:27:26;;;;;;;102.93;36.58;;;1.10;97.70;;;;;;5015808;28;20061;-78
2021/01/05 04:29:53;;;;;;;110.55;40.80;;;1.10;97.70;;;;;;5015975;28;20624;-78
2021/01/05 04:32:19;;;;;;;104.82;38.05;;;1.10;97.80;;;;;;5015872;28;20028;-78
2021/01/05 04:34:44;;;;;;;106.95;37.78;;;1.10;97.80;;;;;;5016006;28;20472;-78
2021/01/05 04:37:10;;;;;;;95.57;33.40;;;1.10;97.90;;;;;;5015995;28;20030;-78
2021/01/05 04:39:36;;;;;;;77.15;30.25;;;1.10;97.80;;;;;;4998337;28;20026;-77
2021/01/05 04:42:16;;;;;;;71.22;25.45;;;1.10;97.80;;;;;;5015871;28;20030;-78
2021/01/05 04:45:03;;;;;;;68.22;27.65;;;1.10;97.80;;;;;;4998104;28;20033;-77
2021/01/05 04:47:41;;;;;;;74.60;28.58;;;1.10;97.80;;;;;;5015247;28;20037;-77
2021/01/05 04:50:07;;;;;;;70.38;30.45;;;1.10;97.80;;;;;;5015177;28;20022;-79
2021/01/05 04:52:56;;;;;;;76.35;29.90;;;1.20;97.90;;;;;;5015316;28;20022;-77
2021/01/05 04:55:42;;;;;;;69.00;28.75;;;1.20;98.10;;;;;;5015351;28;20025;-77
2021/01/05 04:58:37;;;;;;;65.40;25.73;;;1.20;98.10;;;;;;5014544;28;20040;-79
2021/01/05 05:01:10;;;;;;;62.42;27.17;;;1.20;98.10;;;;;;4994915;28;20033;-78
2021/01/05 05:04:01;;;;;;;62.45;25.65;;;1.30;98.10;;;;;;5015165;28;20034;-78
2021/01/05 05:07:00;;;;;;;56.47;24.80;;;1.30;98.20;;;;;;4997645;28;20502;-79
2021/01/05 05:09:37;;;;;;;62.50;26.38;;;1.30;98.30;;;;;;5004432;28;20038;-78
2021/01/05 05:12:21;;;;;;;63.88;28.73;;;1.40;98.30;;;;;;5014677;28;20022;-78
2021/01/05 05:14:58;;;;;;;69.60;32.22;;;1.40;98.30;;;;;;5014651;28;20026;-79
2021/01/05 05:17:48;;;;;;;56.35;24.25;;;1.40;98.40;;;;;;5015262;28;20416;-78
2021/01/05 05:21:01;;;;;;;58.72;25.48;;;1.40;98.30;;;;;;5015052;28;20038;-79
2021/01/05 05:23:51;;;;;;;72.57;32.70;;;1.50;98.40;;;;;;5001762;28;20089;-78
2021/01/05 05:26:27;;;;;;;51.10;23.77;;;1.50;98.30;;;;;;5014242;28;20030;-78
2021/01/05 05:29:04;;;;;;;58.15;26.98;;;1.50;98.20;;;;;;5014440;28;20030;-77
2021/01/05 05:31:32;;;;;;;59.20;25.77;;;1.50;98.20;;;;;;5014183;28;20026;-77
2021/01/05 05:34:29;;;;;;;55.10;24.88;;;1.60;98.10;;;;;;5013539;28;20030;-77
2021/01/05 05:37:18;;;;;;;58.45;25.60;;;1.50;98.10;;;;;;4996427;28;20037;-78
2021/01/05 05:39:56;;;;;;;54.35;25.20;;;1.50;98.20;;;;;;5015113;28;20021;-78
2021/01/05 05:42:40;;;;;;;61.30;25.42;;;1.50;98.20;;;;;;5014680;28;20030;-78
2021/01/05 05:45:12;;;;;;;57.90;26.17;;;1.50;98.10;;;;;;5015006;28;20372;-79
2021/01/05 05:47:51;;;;;;;48.28;20.98;;;1.50;98.20;;;;;;5014707;28;20026;-77
2021/01/05 05:50:25;;;;;;;47.30;22.50;;;1.50;98.10;;;;;;5014785;28;20025;-78
2021/01/05 05:53:13;;;;;;;49.08;22.58;;;1.60;98.30;;;;;;5014537;28;20017;-78
2021/01/05 05:56:06;;;;;;;53.70;24.17;;;1.60;98.30;;;;;;5014162;28;20097;-78
2021/01/05 05:58:39;;;;;;;54.42;24.27;;;1.60;98.30;;;;;;5014186;28;20044;-78
2021/01/05 06:01:19;;;;;;;41.55;19.65;;;1.60;98.40;;;;;;5014062;28;20014;-78
2021/01/05 06:03:45;;;;;;;41.65;20.02;;;1.60;98.40;;;;;;5014336;28;20029;-78
2021/01/05 06:06:11;;;;;;;47.15;21.02;;;1.60;98.20;;;;;;4996391;28;20026;-78
2021/01/05 06:08:37;;;;;;;43.72;21.83;;;1.60;98.20;;;;;;5013167;28;20017;-79
2021/01/05 06:11:03;;;;;;;49.38;20.02;;;1.60;98.30;;;;;;5014094;28;20100;-80
2021/01/05 06:13:29;;;;;;;38.35;20.15;;;1.60;98.30;;;;;;4996723;28;20132;-80
2021/01/05 06:15:54;;;;;;;40.75;20.63;;;1.70;98.30;;;;;;5014951;28;20034;-82
2021/01/05 06:18:20;;;;;;;42.00;20.13;;;1.70;98.30;;;;;;5013292;28;20033;-81
2021/01/05 06:20:46;;;;;;;43.67;20.63;;;1.70;98.30;;;;;;5013827;28;20460;-80
2021/01/05 06:23:12;;;;;;;40.00;19.02;;;1.70;98.30;;;;;;5013358;28;20083;-81
2021/01/05 06:25:38;;;;;;;42.67;23.20;;;1.70;98.30;;;;;;5013849;28;20483;-80
2021/01/05 06:28:05;;;;;;;54.38;25.58;;;1.70;98.40;;;;;;5014233;28;20105;-80
2021/01/05 06:30:31;;;;;;;42.75;21.98;;;1.70;98.40;;;;;;5012902;28;20030;-80
2021/01/05 06:32:57;;;;;;;47.13;22.67;;;1.80;98.40;;;;;;4994595;28;20191;-81
2021/01/05 06:35:23;;;;;;;42.83;21.88;;;1.80;98.30;;;;;;4994881;28;20041;-80
2021/01/05 06:37:50;;;;;;;47.38;24.27;;;1.80;98.30;;;;;;5012907;28;20026;-82
2021/01/05 06:40:21;;;;;;;46.13;23.58;;;1.80;98.30;;;;;;5013425;28;20034;-81
2021/01/05 06:42:47;;;;;;;46.70;24.55;;;1.80;98.40;;;;;;5013095;28;20093;-81
2021/01/05 06:45:27;;;;;;;50.67;26.67;;;1.80;98.40;;;;;;5013444;28;20034;-83
2021/01/05 06:47:54;;;;;;;45.88;21.63;;;1.80;98.40;;;;;;4995259;28;20072;-79
2021/01/05 06:50:22;;;;;;;54.03;25.20;;;1.90;98.40;;;;;;5011742;28;20080;-80
2021/01/05 06:52:47;;;;;;;48.17;24.65;;;1.90;98.40;;;;;;5011935;28;20026;-80
2021/01/05 06:55:13;;;;;;;45.03;23.02;;;1.90;98.30;;;;;;4996898;28;20049;-79
2021/01/05 06:57:39;;;;;;;44.58;22.00;;;1.90;98.30;;;;;;4993807;28;20034;-78
2021/01/05 07:00:12;;;;;;;31.75;18.38;;;1.90;98.30;;;;;;5011670;28;20444;-77
2021/01/05 07:02:37;;;;;;;38.75;21.17;;;1.90;98.30;;;;;;5027102;28;20088;-78
2021/01/05 07:05:04;;;;;;;49.13;22.92;;;1.90;98.30;;;;;;5000721;28;20037;-79
2021/01/05 07:07:29;;;;;;;38.60;21.13;;;1.90;98.30;;;;;;5021637;28;20034;-78
2021/01/05 07:09:55;;;;;;;39.97;21.45;;;1.90;98.40;;;;;;5020609;28;20037;-79
2021/01/05 07:12:21;;;;;;;40.47;19.15;;;1.90;98.40;;;;;;5004840;28;20046;-79
2021/01/05 07:14:48;;;;;;;37.72;20.58;;;1.90;98.30;;;;;;5015048;28;20105;-80
2021/01/05 07:17:15;;;;;;;44.00;22.52;;;1.90;98.20;;;;;;4994721;28;20403;-80
2021/01/05 07:19:40;;;;;;;40.33;21.05;;;1.90;98.20;;;;;;4993540;28;20037;-80
2021/01/05 07:22:06;;;;;;;45.33;22.58;;;1.90;98.20;;;;;;5010136;28;20030;-80
2021/01/05 07:24:32;;;;;;;43.83;22.85;;;1.90;98.20;;;;;;4993514;28;20041;-80
2021/01/05 07:26:58;;;;;;;46.58;24.38;;;1.90;98.40;;;;;;5012265;28;20179;-81
2021/01/05 07:29:24;;;;;;;50.22;25.67;;;2.00;98.40;;;;;;4994992;28;20395;-80
2021/01/05 07:31:51;;;;;;;54.17;25.90;;;2.00;98.30;;;;;;5013329;28;20034;-81
2021/01/05 07:34:17;;;;;;;54.67;25.95;;;2.00;98.30;;;;;;5012314;28;20037;-78
2021/01/05 07:36:53;;;;;;;48.05;24.02;;;1.90;98.20;;;;;;4993326;28;20387;-80
2021/01/05 07:39:30;;;;;;;45.90;22.55;;;1.90;98.00;;;;;;5011251;28;20498;-79
2021/01/05 07:42:21;;;;;;;49.13;25.27;;;1.90;98.10;;;;;;4993572;28;20386;-81
2021/01/05 07:44:50;;;;;;;62.83;29.17;;;1.80;97.90;;;;;;5010835;28;20026;-81
2021/01/05 07:47:17;;;;;;;63.50;28.17;;;1.80;98.00;;;;;;5010986;28;20030;-80
2021/01/05 07:49:44;;;;;;;61.58;27.33;;;1.80;98.00;;;;;;5011249;28;20825;-81
2021/01/05 07:52:25;;;;;;;48.55;24.25;;;1.80;98.10;;;;;;5011763;28;20638;-83
2021/01/05 07:54:51;;;;;;;45.53;23.98;;;1.80;98.00;;;;;;4993818;28;20022;-78
2021/01/05 07:57:17;;;;;;;46.72;24.48;;;1.80;98.00;;;;;;5010505;28;20384;-78
2021/01/05 07:59:55;;;;;;;47.20;23.48;;;1.80;98.10;;;;;;4993595;28;20112;-78
2021/01/05 08:02:21;;;;;;;48.80;26.63;;;1.80;98.00;;;;;;5012105;28;20050;-80
2021/01/05 08:04:47;;;;;;;48.58;24.85;;;1.80;97.90;;;;;;5011224;28;20112;-82
2021/01/05 08:07:13;;;;;;;42.15;20.55;;;1.80;97.90;;;;;;5011226;28;20034;-81
2021/01/05 08:09:40;;;;;;;58.65;29.10;;;1.80;98.00;;;;;;4993600;28;20080;-81
2021/01/05 08:12:14;;;;;;;55.13;29.77;;;1.80;98.10;;;;;;5011047;28;20056;-79
2021/01/05 08:14:41;;;;;;;51.47;25.35;;;1.80;98.10;;;;;;5010970;28;20033;-80
2021/01/05 08:17:07;;;;;;;53.78;25.95;;;1.90;98.00;;;;;;5011714;28;20347;-80
2021/01/05 08:19:33;;;;;;;45.45;24.13;;;1.80;97.90;;;;;;4993664;28;20365;-80
2021/01/05 08:21:59;;;;;;;59.63;28.15;;;1.80;97.70;;;;;;5010893;28;20044;-80
2021/01/05 08:24:24;;;;;;;48.25;25.55;;;1.80;97.80;;;;;;5010926;28;20029;-80
2021/01/05 08:26:50;;;;;;;66.82;31.75;;;1.80;97.80;;;;;;5010407;28;20045;-79
2021/01/05 08:29:16;;;;;;;62.17;28.58;;;1.80;97.80;;;;;;5010850;28;20049;-81
2021/01/05 08:31:43;;;;;;;41.10;22.13;;;1.80;97.60;;;;;;5010467;28;20022;-81
2021/01/05 08:34:10;;;;;;;52.72;26.17;;;1.70;97.50;;;;;;4996209;28;20076;-81
2021/01/05 08:36:36;;;;;;;57.53;29.83;;;1.70;97.40;;;;;;5014561;28;20041;-79
2021/01/05 08:39:04;;;;;;;54.90;24.17;;;1.70;97.70;;;;;;5014599;28;20026;-80
2021/01/05 08:41:30;;;;;;;51.35;24.50;;;1.70;97.80;;;;;;5014015;28;20105;-80
2021/01/05 08:43:56;;;;;;;45.47;22.38;;;1.70;97.80;;;;;;5013914;28;20450;-81
2021/01/05 08:46:28;;;;;;;47.90;22.85;;;1.70;97.60;;;;;;5014131;28;20028;-81
2021/01/05 08:48:53;;;;;;;62.38;26.60;;;1.70;97.50;;;;;;5013854;28;20028;-81
2021/01/05 08:51:21;;;;;;;53.00;24.95;;;1.70;97.60;;;;;;5014133;28;20780;-80
2021/01/05 08:53:48;;;;;;;58.80;28.25;;;1.70;97.60;;;;;;4996545;28;20545;-81
2021/01/05 08:56:22;;;;;;;66.85;29.63;;;1.70;97.50;;;;;;5014168;28;20471;-80
2021/01/05 08:58:50;;;;;;;60.45;27.92;;;1.60;97.50;;;;;;4995939;28;20132;-81
2021/01/05 09:01:16;;;;;;;66.18;31.35;;;1.60;97.50;;;;;;5014035;28;20021;-80
2021/01/05 09:03:42;;;;;;;59.55;29.25;;;1.60;97.60;;;;;;5014152;28;20384;-80
2021/01/05 09:06:09;;;;;;;76.50;34.92;;;1.60;97.70;;;;;;5013757;28;20025;-79
2021/01/05 09:08:36;;;;;;;62.22;28.30;;;1.60;97.50;;;;;;5015090;28;20047;-79
2021/01/05 09:11:05;;;;;;;66.85;30.35;;;1.60;97.50;;;;;;4996994;28;20069;-81
2021/01/05 09:13:31;;;;;;;72.93;32.05;;;1.60;97.50;;;;;;5011319;28;20467;-79
2021/01/05 09:15:56;;;;;;;68.93;31.83;;;1.60;97.40;;;;;;4996706;28;20041;-81
2021/01/05 09:18:23;;;;;;;76.85;31.30;;;1.50;97.30;;;;;;5013414;28;20026;-81
2021/01/05 09:20:54;;;;;;;70.50;31.77;;;1.50;97.30;;;;;;4995805;28;20388;-80
2021/01/05 09:23:24;;;;;;;74.47;29.70;;;1.40;97.20;;;;;;5013460;28;20026;-80
2021/01/05 09:25:51;;;;;;;60.75;27.83;;;1.40;97.40;;;;;;5012676;28;20030;-81
2021/01/05 09:28:17;;;;;;;69.68;30.92;;;1.40;97.20;;;;;;5013532;28;20026;-80
2021/01/05 09:30:46;;;;;;;65.07;29.80;;;1.40;97.20;;;;;;4995514;28;20057;-79
2021/01/05 09:33:12;;;;;;;70.38;31.65;;;1.40;97.50;;;;;;5013381;28;20473;-81
2021/01/05 09:35:38;;;;;;;84.03;38.00;;;1.40;97.50;;;;;;5012689;28;20449;-81
2021/01/05 09:38:08;;;;;;;77.30;36.05;;;1.40;97.30;;;;;;5015231;28;20033;-79
2021/01/05 09:40:35;;;;;;;83.07;38.08;;;1.40;97.30;;;;;;5016884;28;20022;-80
2021/01/05 09:43:00;;;;;;;79.40;34.70;;;1.40;97.40;;;;;;5012749;28;20361;-80
2021/01/05 09:45:26;;;;;;;69.03;31.48;;;1.30;97.40;;;;;;5013129;28;20036;-78
2021/01/05 09:48:05;;;;;;;76.20;33.42;;;1.30;97.30;;;;;;5012914;28;20380;-81
2021/01/05 09:50:31;;;;;;;76.28;31.80;;;1.30;97.10;;;;;;5012898;28;20022;-80
2021/01/05 09:52:56;;;;;;;75.15;32.55;;;1.30;97.10;;;;;;5012830;28;20028;-79
2021/01/05 09:55:24;;;;;;;82.38;35.72;;;1.20;97.10;;;;;;5012578;28;20033;-82
2021/01/05 09:57:50;;;;;;;83.68;35.60;;;1.20;97.10;;;;;;5012704;28;20025;-80
2021/01/05 10:00:16;;;;;;;93.55;38.88;;;1.20;97.20;;;;;;5012873;28;20018;-81
2021/01/05 10:02:42;;;;;;;94.60;37.20;;;1.20;97.40;;;;;;5012577;28;20075;-79
2021/01/05 10:05:08;;;;;;;96.22;39.25;;;1.20;97.40;;;;;;4998337;28;20026;-80
2021/01/05 10:07:34;;;;;;;86.68;37.13;;;1.20;97.30;;;;;;5013513;28;20026;-80
2021/01/05 10:10:00;;;;;;;92.10;38.67;;;1.20;97.30;;;;;;4995613;28;20029;-81
2021/01/05 10:12:25;;;;;;;85.30;37.47;;;1.10;97.10;;;;;;5012706;28;20073;-80
2021/01/05 10:14:51;;;;;;;87.70;34.53;;;1.10;97.30;;;;;;5013293;28;20105;-81
2021/01/05 10:17:17;;;;;;;90.43;37.00;;;1.10;97.20;;;;;;5012077;28;20703;-82
2021/01/05 10:19:43;;;;;;;83.05;34.28;;;1.10;97.20;;;;;;5013304;28;20045;-82
2021/01/05 10:22:09;;;;;;;81.68;33.88;;;1.10;97.10;;;;;;5013394;28;20125;-82
2021/01/05 10:24:34;;;;;;;82.97;34.92;;;1.00;97.00;;;;;;5012578;28;20053;-82
2021/01/05 10:27:00;;;;;;;63.42;28.45;;;1.00;97.00;;;;;;5013291;28;20040;-84
2021/01/05 10:29:26;;;;;;;81.00;32.63;;;1.00;97.20;;;;;;5014500;28;20026;-83
2021/01/05 10:31:52;;;;;;;86.47;36.70;;;1.00;97.10;;;;;;5013684;28;20026;-82
2021/01/05 10:34:23;;;;;;;91.45;37.92;;;1.00;97.40;;;;;;5013518;28;20041;-83
2021/01/05 10:36:53;;;;;;;88.10;34.85;;;1.00;97.50;;;;;;5013080;28;20088;-81
2021/01/05 10:39:19;;;;;;;90.13;35.47;;;1.00;97.30;;;;;;5013992;28;20508;-82
2021/01/05 10:41:45;;;;;;;86.35;35.25;;;1.00;97.20;;;;;;5014428;28;20110;-82
2021/01/05 10:44:14;;;;;;;87.93;36.80;;;1.00;97.30;;;;;;5014836;28;20052;-82
2021/01/05 10:46:40;;;;;;;67.45;29.00;;;1.00;97.20;;;;;;4997449;28;20030;-82
2021/01/05 10:49:07;;;;;;;80.55;31.60;;;1.10;97.40;;;;;;4995845;28;20029;-82
2021/01/05 10:51:33;;;;;;;90.60;34.13;;;1.10;97.50;;;;;;4996082;28;20033;-81
2021/01/05 10:53:59;;;;;;;83.80;37.33;;;1.10;97.50;;;;;;5013172;28;20026;-76
2021/01/05 10:56:25;;;;;;;88.22;36.03;;;1.20;97.60;;;;;;5012243;28;20053;-80
2021/01/05 10:58:50;;;;;;;76.53;29.95;;;1.20;97.60;;;;;;5012599;28;20487;-79
2021/01/05 11:01:16;;;;;;;79.63;30.25;;;1.20;97.50;;;;;;5012260;28;20041;-78
2021/01/05 11:03:42;;;;;;;95.28;39.35;;;1.20;97.50;;;;;;5012388;28;20026;-78
2021/01/05 11:06:08;;;;;;;106.60;41.22;;;1.30;97.60;;;;;;5011048;28;20457;-79
2021/01/05 11:08:35;;;;;;;101.32;39.45;;;1.30;97.40;;;;;;5011018;28;20025;-78
2021/01/05 11:11:01;;;;;;;95.10;38.40;;;1.30;97.30;;;;;;4993963;28;20026;-78
2021/01/05 11:13:28;;;;;;;99.40;39.10;;;1.20;97.10;;;;;;5012052;28;20042;-78
2021/01/05 11:15:54;;;;;;;100.43;40.00;;;1.30;97.30;;;;;;5011825;28;20053;-80
2021/01/05 11:18:20;;;;;;;102.75;40.05;;;1.30;97.30;;;;;;5011536;28;20421;-79
2021/01/05 11:20:45;;;;;;;104.32;38.67;;;1.20;97.20;;;;;;5011646;28;20398;-79
2021/01/05 11:23:11;;;;;;;95.18;38.72;;;1.20;97.30;;;;;;5011535;28;20109;-78
2021/01/05 11:25:37;;;;;;;95.00;35.63;;;1.20;97.40;;;;;;4993631;28;20064;-77
2021/01/05 11:28:04;;;;;;;93.18;35.65;;;1.20;97.20;;;;;;5011790;28;20099;-83
2021/01/05 11:30:30;;;;;;;81.55;31.25;;;1.20;97.00;;;;;;5011514;28;20476;-79
2021/01/05 11:32:56;;;;;;;84.85;34.90;;;1.20;96.80;;;;;;5010590;28;20108;-80
2021/01/05 11:35:22;;;;;;;78.63;32.35;;;1.10;96.70;;;;;;5011242;28;20503;-79
2021/01/05 11:37:48;;;;;;;89.13;36.50;;;1.10;96.50;;;;;;5010959;28;20429;-79
2021/01/05 11:40:15;;;;;;;89.32;37.55;;;1.00;96.70;;;;;;5011608;28;20033;-78
2021/01/05 11:42:41;;;;;;;84.38;35.40;;;1.00;96.90;;;;;;5013157;28;20026;-79
2021/01/05 11:45:10;;;;;;;94.80;38.90;;;1.10;97.00;;;;;;5011815;28;20034;-81
2021/01/05 11:47:36;;;;;;;87.93;35.22;;;1.00;97.10;;;;;;5011933;28;20030;-78
2021/01/05 11:50:03;;;;;;;93.53;38.00;;;1.10;97.00;;;;;;5012113;28;20030;-78
2021/01/05 11:52:31;;;;;;;99.70;38.70;;;1.00;97.10;;;;;;5011559;28;20036;-79
2021/01/05 11:54:57;;;;;;;78.25;31.30;;;1.10;97.30;;;;;;4995304;28;20045;-83
2021/01/05 11:57:22;;;;;;;82.22;34.33;;;1.20;97.20;;;;;;5012821;28;20037;-80
2021/01/05 11:59:48;;;;;;;83.18;35.50;;;1.10;97.10;;;;;;4995130;28;20030;-81
2021/01/05 12:02:13;;;;;;;79.43;35.15;;;1.10;97.10;;;;;;4995849;28;20595;-77
2021/01/05 12:04:39;;;;;;;91.47;36.53;;;1.10;97.00;;;;;;5013150;28;20034;-80
2021/01/05 12:07:05;;;;;;;80.65;32.53;;;1.10;97.10;;;;;;5015395;28;20084;-79
2021/01/05 12:09:31;;;;;;;90.30;38.45;;;1.10;97.20;;;;;;5017760;28;20072;-79
2021/01/05 12:12:02;;;;;;;78.70;34.60;;;1.20;97.20;;;;;;5015969;28;20026;-78
2021/01/05 12:14:28;;;;;;;102.60;39.55;;;1.20;97.20;;;;;;5015666;28;20042;-78
2021/01/05 12:17:00;;;;;;;78.28;33.55;;;1.20;96.80;;;;;;5017180;28;20034;-79
2021/01/05 12:19:29;;;;;;;102.35;38.55;;;1.20;96.90;;;;;;5016294;28;20096;-78
2021/01/05 12:22:05;;;;;;;86.55;35.58;;;1.10;96.60;;;;;;5016030;28;20419;-78
2021/01/05 12:24:32;;;;;;;81.05;35.03;;;1.10;96.80;;;;;;5015437;28;20475;-79
2021/01/05 12:27:00;;;;;;;97.80;40.65;;;1.00;96.90;;;;;;5016217;28;20361;-79
2021/01/05 12:29:31;;;;;;;95.22;34.63;;;1.10;96.90;;;;;;5015747;28;20049;-79
2021/01/05 12:32:03;;;;;;;80.05;34.50;;;1.10;97.10;;;;;;5016225;28;20408;-79
2021/01/05 12:34:32;;;;;;;72.65;29.88;;;1.10;96.90;;;;;;5016893;28;20354;-78
2021/01/05 12:37:06;;;;;;;84.00;34.50;;;1.00;96.70;;;;;;4998883;28;20464;-79
2021/01/05 12:39:34;;;;;;;91.15;38.15;;;1.00;96.80;;;;;;5017766;28;20033;-78
2021/01/05 12:42:11;;;;;;;90.43;35.90;;;1.00;96.90;;;;;;5016143;28;20049;-79
2021/01/05 12:44:37;;;;;;;84.40;33.30;;;1.00;97.00;;;;;;5015532;28;20060;-79
2021/01/05 12:47:03;;;;;;;79.00;32.75;;;1.00;96.90;;;;;;4981958;28;20488;-79
2021/01/05 12:49:29;;;;;;;86.55;36.70;;;1.00;96.90;;;;;;5015645;28;20022;-78
2021/01/05 12:51:55;;;;;;;85.15;35.20;;;0.90;96.80;;;;;;4997485;28;20125;-79
2021/01/05 12:54:24;;;;;;;91.18;34.50;;;0.90;97.00;;;;;;5023812;28;20018;-79